Time;durP1;ratioP1;P1;durP2;ratioP2;P2;SDS_P1;SDS_P2;PMS_P1;PMS_P2;Temp;Humidity;BMP_temperature;BMP_pressure;BME280_temperature;BME280_humidity;BME280_pressure;Samples;Min_cycle;Max_cycle;Signal;HPM_P1;HPM_P2
2023/12/01 00:03:10;;;;;;;22.93;13.80;;;-2.80;99.90;;;;;;10514306;28;20208;-83
2023/12/01 00:08:32;;;;;;;26.83;15.87;;;-2.80;1.00;;;;;;10496186;28;20434;-83
2023/12/01 00:13:53;;;;;;;32.33;16.90;;;-2.90;99.90;;;;;;10496236;28;20230;-82
2023/12/01 00:19:15;;;;;;;25.67;15.00;;;-3.00;1.00;;;;;;10507904;28;20201;-85
2023/12/01 00:24:36;;;;;;;27.47;15.87;;;-2.90;1.00;;;;;;10509286;28;20290;-83
2023/12/01 00:29:57;;;;;;;25.47;14.70;;;-3.00;99.90;;;;;;10455367;28;20254;-82
2023/12/01 00:35:19;;;;;;;28.73;14.30;;;-3.00;99.90;;;;;;10487681;28;20379;-84
2023/12/01 00:40:41;;;;;;;18.23;11.37;;;-3.10;99.90;;;;;;10468636;28;20504;-84
2023/12/01 00:46:03;;;;;;;16.50;9.67;;;-3.20;99.90;;;;;;10508890;28;20266;-83
2023/12/01 00:51:24;;;;;;;16.43;11.03;;;-3.30;99.90;;;;;;10494155;28;20228;-83
2023/12/01 00:56:45;;;;;;;19.37;11.30;;;-3.30;99.90;;;;;;10508660;28;20219;-83
2023/12/01 01:02:08;;;;;;;22.47;12.73;;;-3.30;99.90;;;;;;10508292;28;20208;-83
2023/12/01 01:07:30;;;;;;;20.33;12.10;;;-3.30;99.90;;;;;;10527737;28;20476;-87
2023/12/01 01:12:52;;;;;;;18.83;10.87;;;-3.30;99.90;;;;;;10506777;28;20300;-84
2023/12/01 01:18:13;;;;;;;16.83;10.80;;;-3.30;99.90;;;;;;10492676;28;20222;-84
2023/12/01 01:23:35;;;;;;;21.50;13.27;;;-3.30;99.90;;;;;;10543345;28;20486;-84
2023/12/01 01:28:56;;;;;;;22.57;13.27;;;-3.40;17.70;;;;;;10462538;28;20422;-84
2023/12/01 01:34:17;;;;;;;20.20;12.37;;;-3.40;1.00;;;;;;10465487;28;20231;-84
2023/12/01 01:39:39;;;;;;;23.37;12.97;;;-3.50;1.00;;;;;;10465473;28;20227;-84
2023/12/01 01:45:00;;;;;;;19.37;11.70;;;-3.60;1.00;;;;;;10467454;28;20211;-84
2023/12/01 01:50:22;;;;;;;16.67;10.90;;;-3.60;1.00;;;;;;10519467;28;20411;-84
2023/12/01 01:55:45;;;;;;;17.37;10.30;;;-3.70;6.00;;;;;;10506347;28;20196;-84
2023/12/01 02:01:07;;;;;;;29.60;13.67;;;-3.70;46.30;;;;;;10492330;28;20218;-84
2023/12/01 02:06:32;;;;;;;27.40;13.00;;;-3.70;96.30;;;;;;10525510;28;20220;-83
2023/12/01 02:11:54;;;;;;;21.20;11.10;;;-3.70;1.00;;;;;;10506382;28;20216;-85
2023/12/01 02:17:15;;;;;;;33.10;16.77;;;-3.70;27.00;;;;;;10505879;28;20280;-84
2023/12/01 02:22:36;;;;;;;66.50;28.13;;;-3.70;1.00;;;;;;10451402;28;20197;-84
2023/12/01 02:28:01;;;;;;;24.73;14.63;;;-3.70;1.00;;;;;;10486885;28;20252;-84
2023/12/01 02:33:23;;;;;;;17.90;11.50;;;-3.80;1.00;;;;;;10491897;28;20254;-82
2023/12/01 02:38:44;;;;;;;17.00;9.67;;;-3.70;1.00;;;;;;10492397;28;20238;-84
2023/12/01 02:44:05;;;;;;;11.97;8.13;;;-3.70;1.00;;;;;;10506979;28;20195;-84
2023/12/01 02:49:27;;;;;;;15.70;9.13;;;-3.70;2.40;;;;;;10489911;28;20239;-84
2023/12/01 02:54:48;;;;;;;13.17;8.23;;;-3.70;1.00;;;;;;10463883;28;20202;-84
2023/12/01 03:00:13;;;;;;;11.63;8.23;;;-3.70;1.00;;;;;;10485402;28;20215;-85
2023/12/01 03:05:34;;;;;;;19.00;10.97;;;-3.60;42.80;;;;;;10504741;28;20250;-83
2023/12/01 03:10:56;;;;;;;25.07;14.13;;;-3.60;1.00;;;;;;10505052;28;20294;-83
2023/12/01 03:16:17;;;;;;;20.80;11.73;;;-3.70;1.00;;;;;;10517373;28;20205;-84
2023/12/01 03:21:39;;;;;;;13.67;9.50;;;-3.70;1.00;;;;;;10504689;28;20190;-83
2023/12/01 03:27:00;;;;;;;13.57;8.30;;;-3.70;1.00;;;;;;10494799;28;20198;-82
2023/12/01 03:32:21;;;;;;;16.33;9.63;;;-3.70;1.00;;;;;;10476639;28;20221;-83
2023/12/01 03:37:46;;;;;;;14.90;8.73;;;-3.70;1.00;;;;;;10480309;28;20197;-83
2023/12/01 03:43:07;;;;;;;16.60;9.50;;;-3.70;1.00;;;;;;10484140;28;20191;-83
2023/12/01 03:48:29;;;;;;;19.03;11.13;;;-3.70;1.00;;;;;;10474353;28;20189;-83
2023/12/01 03:53:50;;;;;;;15.83;9.77;;;-3.50;20.70;;;;;;10512153;28;20242;-85
2023/12/01 03:59:12;;;;;;;17.77;9.53;;;-3.30;1.00;;;;;;10504553;28;20196;-85
2023/12/01 04:04:33;;;;;;;15.23;9.90;;;-3.30;1.00;;;;;;10518051;28;20299;-84
2023/12/01 04:09:54;;;;;;;16.37;10.60;;;-3.30;1.00;;;;;;10537323;28;20227;-85
2023/12/01 04:15:18;;;;;;;16.70;10.60;;;-3.20;31.70;;;;;;10558657;28;20204;-85
2023/12/01 04:20:40;;;;;;;16.60;9.67;;;-3.20;89.60;;;;;;10504905;28;20225;-85
2023/12/01 04:26:02;;;;;;;19.17;10.03;;;-3.10;99.90;;;;;;10509659;28;20215;-84
2023/12/01 04:31:23;;;;;;;18.00;9.87;;;-3.10;99.90;;;;;;10495083;28;20222;-84
2023/12/01 04:36:45;;;;;;;19.13;10.83;;;-3.10;99.90;;;;;;10495245;28;20196;-86
2023/12/01 04:42:08;;;;;;;18.57;11.20;;;-3.00;99.90;;;;;;10494304;28;20215;-82
2023/12/01 04:47:29;;;;;;;22.00;11.50;;;-3.00;1.00;;;;;;10467816;28;20222;-83
2023/12/01 04:52:53;;;;;;;19.30;11.80;;;-3.10;1.00;;;;;;10498614;28;20235;-83
2023/12/01 04:58:15;;;;;;;25.80;13.17;;;-3.10;9.90;;;;;;10494386;28;20191;-84
2023/12/01 05:03:36;;;;;;;24.90;13.83;;;-3.00;99.90;;;;;;10521974;28;20425;-84
2023/12/01 05:08:57;;;;;;;28.50;13.50;;;-2.80;1.00;;;;;;10508123;28;20204;-83
2023/12/01 05:14:19;;;;;;;28.80;14.73;;;-2.80;1.00;;;;;;10474636;28;20261;-84
2023/12/01 05:19:40;;;;;;;25.80;14.67;;;-2.80;1.00;;;;;;10488366;28;20188;-84
2023/12/01 05:25:01;;;;;;;23.07;12.93;;;-2.90;44.60;;;;;;10521140;28;20283;-82
2023/12/01 05:30:27;;;;;;;27.23;14.60;;;-2.90;1.00;;;;;;10507191;28;20571;-83
2023/12/01 05:35:49;;;;;;;27.60;13.73;;;-2.90;1.00;;;;;;10506647;28;20200;-84
2023/12/01 05:41:10;;;;;;;25.70;14.00;;;-2.80;1.00;;;;;;10491153;28;20199;-84
2023/12/01 05:46:31;;;;;;;26.67;14.37;;;-2.90;99.90;;;;;;10525838;28;20192;-84
2023/12/01 05:51:52;;;;;;;25.03;13.20;;;-2.70;1.00;;;;;;10520365;28;20232;-85
2023/12/01 05:57:14;;;;;;;27.47;13.77;;;-2.50;1.00;;;;;;10506013;28;20276;-85
2023/12/01 06:02:35;;;;;;;31.83;16.33;;;-2.40;99.90;;;;;;10517382;28;20233;-85
2023/12/01 06:08:00;;;;;;;35.67;18.23;;;-2.50;99.90;;;;;;10505920;28;20234;-85
2023/12/01 06:13:21;;;;;;;36.40;19.57;;;-2.50;1.00;;;;;;10491833;28;20223;-86
2023/12/01 06:18:43;;;;;;;33.20;15.63;;;-2.40;99.90;;;;;;10506017;28;20524;-86
2023/12/01 06:24:05;;;;;;;31.03;15.07;;;-2.30;1.00;;;;;;10519408;28;20186;-87
2023/12/01 06:29:28;;;;;;;35.27;15.63;;;-2.40;1.00;;;;;;10534169;28;20186;-86
2023/12/01 06:34:49;;;;;;;33.60;17.10;;;-2.30;99.90;;;;;;10480735;28;20227;-87
2023/12/01 06:40:12;;;;;;;34.90;17.63;;;-2.30;1.00;;;;;;10491758;28;20211;-85
2023/12/01 06:45:35;;;;;;;32.77;15.30;;;-2.20;1.00;;;;;;10496631;28;20206;-86
2023/12/01 06:50:57;;;;;;;36.90;19.63;;;-2.10;96.20;;;;;;10517610;28;20250;-86
2023/12/01 06:56:18;;;;;;;35.67;18.57;;;-2.00;1.00;;;;;;10504441;28;20195;-86
2023/12/01 07:01:40;;;;;;;28.03;16.17;;;-1.90;1.00;;;;;;10503532;28;20192;-86
2023/12/01 07:07:03;;;;;;;29.63;15.27;;;-1.90;99.90;;;;;;10525525;28;20206;-86
2023/12/01 07:12:24;;;;;;;30.00;16.37;;;-1.80;1.00;;;;;;10507457;28;20551;-86
2023/12/01 07:17:48;;;;;;;30.90;16.40;;;-1.80;1.00;;;;;;10498297;28;20199;-86
2023/12/01 07:23:10;;;;;;;30.13;15.87;;;-1.70;99.90;;;;;;10497975;28;20201;-87
2023/12/01 07:28:31;;;;;;;26.67;14.63;;;-1.60;1.00;;;;;;10512181;28;20188;-86
2023/12/01 07:33:53;;;;;;;33.00;14.80;;;-1.50;99.90;;;;;;10478792;28;20233;-86
2023/12/01 07:39:15;;;;;;;25.13;14.13;;;-1.30;1.00;;;;;;10484213;28;20204;-85
2023/12/01 07:44:36;;;;;;;26.03;15.70;;;-1.30;1.00;;;;;;10483360;28;20200;-84
2023/12/01 07:49:59;;;;;;;30.67;16.00;;;-1.30;1.00;;;;;;10515353;28;20540;-84
2023/12/01 07:55:21;;;;;;;32.83;15.73;;;-1.20;1.00;;;;;;10496173;28;20227;-85
2023/12/01 08:00:42;;;;;;;24.60;13.50;;;-1.10;9.50;;;;;;10496397;28;20197;-85
2023/12/01 08:06:04;;;;;;;22.83;13.00;;;-1.10;1.00;;;;;;10506308;28;20247;-85
2023/12/01 08:11:30;;;;;;;23.53;13.63;;;-1.00;1.00;;;;;;10509567;28;20299;-89
2023/12/01 08:16:52;;;;;;;25.77;12.53;;;-0.90;1.00;;;;;;10410104;28;20233;-85
2023/12/01 08:22:13;;;;;;;23.93;12.90;;;-0.80;1.00;;;;;;10404805;28;20194;-86
2023/12/01 08:27:36;;;;;;;27.57;15.03;;;-0.80;99.90;;;;;;10434707;28;20251;-86
2023/12/01 08:32:58;;;;;;;26.23;14.17;;;-0.60;1.00;;;;;;10406457;28;20253;-84
2023/12/01 08:38:19;;;;;;;23.20;12.40;;;-0.50;99.90;;;;;;10407784;28;20401;-84
2023/12/01 08:43:40;;;;;;;21.00;12.03;;;-0.40;99.90;;;;;;10381004;28;20519;-84
2023/12/01 08:49:01;;;;;;;19.17;11.77;;;-0.20;1.00;;;;;;10397227;28;20226;-84
2023/12/01 08:54:23;;;;;;;19.10;11.10;;;-0.10;1.00;;;;;;10433884;28;20420;-82
2023/12/01 08:59:44;;;;;;;25.03;13.27;;;-0.20;1.00;;;;;;10420036;28;20209;-82
2023/12/01 09:05:06;;;;;;;20.20;11.23;;;-0.10;99.90;;;;;;10416637;28;20211;-83
2023/12/01 09:10:28;;;;;;;36.17;17.00;;;0.00;1.00;;;;;;10418163;28;20504;-84
2023/12/01 09:15:50;;;;;;;22.87;12.00;;;-0.10;73.70;;;;;;10417408;28;20293;-80
2023/12/01 09:21:12;;;;;;;22.50;12.27;;;-0.10;1.00;;;;;;10397923;28;20506;-81
2023/12/01 09:26:33;;;;;;;21.03;11.07;;;-0.10;52.80;;;;;;10391797;28;20206;-89
2023/12/01 09:31:55;;;;;;;22.67;11.17;;;0.00;12.80;;;;;;10370063;28;20254;-87
2023/12/01 09:37:16;;;;;;;17.73;10.93;;;0.10;5.30;;;;;;10367006;28;20266;-87
2023/12/01 09:42:38;;;;;;;21.03;11.87;;;0.20;1.00;;;;;;10383950;28;20206;-87
2023/12/01 09:48:05;;;;;;;22.93;12.87;;;0.20;99.90;;;;;;10392522;28;20238;-87
2023/12/01 09:53:27;;;;;;;26.73;13.13;;;0.40;1.00;;;;;;10376055;28;20266;-86
2023/12/01 09:58:49;;;;;;;20.03;12.50;;;0.50;1.00;;;;;;10389311;28;20335;-83
2023/12/01 10:04:10;;;;;;;21.63;12.17;;;0.70;82.60;;;;;;10389836;28;20218;-85
2023/12/01 10:09:32;;;;;;;24.07;13.63;;;0.80;1.00;;;;;;10377922;28;20199;-85
2023/12/01 10:14:55;;;;;;;19.80;12.10;;;0.80;1.00;;;;;;10357896;28;20553;-84
2023/12/01 10:20:21;;;;;;;26.90;15.00;;;0.90;1.00;;;;;;10405479;28;20222;-87
2023/12/01 10:25:50;;;;;;;28.60;14.77;;;1.00;99.90;;;;;;10406177;28;20220;-85
2023/12/01 10:31:15;;;;;;;16.07;11.07;;;1.30;99.90;;;;;;10375864;28;20546;-85
2023/12/01 10:36:36;;;;;;;22.07;13.03;;;1.30;80.20;;;;;;10400031;28;20487;-82
2023/12/01 10:41:58;;;;;;;21.80;11.73;;;1.40;1.00;;;;;;10390448;28;20215;-84
2023/12/01 10:47:21;;;;;;;22.57;12.17;;;1.40;1.00;;;;;;10404665;28;20189;-83
2023/12/01 10:52:45;;;;;;;22.27;12.10;;;1.40;1.00;;;;;;10376039;28;20263;-87
2023/12/01 10:58:08;;;;;;;21.53;11.47;;;1.50;1.00;;;;;;10389829;28;20212;-84
2023/12/01 11:03:31;;;;;;;15.73;10.63;;;1.90;1.00;;;;;;10365630;28;20655;-85
2023/12/01 11:08:53;;;;;;;11.33;7.90;;;;;;;;;;10376144;28;20352;-82
2023/12/01 11:14:18;;;;;;;15.33;9.30;;;;;;;;;;10410141;28;20253;-78
2023/12/01 11:19:42;;;;;;;17.30;10.90;;;7.10;1.00;;;;;;10390447;28;20200;-85
2023/12/01 11:25:05;;;;;;;14.90;9.80;;;7.20;1.00;;;;;;10389143;28;20193;-82
2023/12/01 11:30:27;;;;;;;23.17;12.30;;;7.50;1.00;;;;;;10348610;28;20203;-85
2023/12/01 11:36:20;;;;;;;35.57;17.67;;;7.50;1.00;;;;;;10390432;28;20585;-89
2023/12/01 11:41:41;;;;;;;30.73;19.10;;;7.50;1.00;;;;;;10416503;28;20204;-84
2023/12/01 11:47:04;;;;;;;22.43;13.00;;;7.90;1.00;;;;;;10403674;28;20575;-86
2023/12/01 11:52:25;;;;;;;16.67;9.97;;;8.20;1.00;;;;;;10381418;28;20483;-84
2023/12/01 11:57:53;;;;;;;11.80;9.13;;;9.10;1.00;;;;;;10392833;28;20242;-86
2023/12/01 12:03:21;;;;;;;13.40;8.43;;;8.70;1.00;;;;;;10436551;28;20215;-81
2023/12/01 12:08:43;;;;;;;12.93;9.23;;;7.60;1.00;;;;;;10341913;28;20198;-84
2023/12/01 12:14:05;;;;;;;16.33;10.00;;;6.60;1.00;;;;;;10359611;28;20565;-80
2023/12/01 12:19:26;;;;;;;15.27;9.30;;;5.70;1.00;;;;;;10394351;28;20216;-83
2023/12/01 12:24:47;;;;;;;13.80;8.47;;;4.90;1.00;;;;;;10372189;28;20205;-84
2023/12/01 12:30:09;;;;;;;47.20;24.40;;;4.50;1.00;;;;;;10404496;28;20244;-83
2023/12/01 12:35:31;;;;;;;17.63;10.97;;;4.10;1.00;;;;;;10380383;28;20228;-85
2023/12/01 12:40:52;;;;;;;24.27;12.73;;;3.90;1.00;;;;;;10410504;28;20197;-83
2023/12/01 12:46:13;;;;;;;27.37;15.80;;;3.50;8.50;;;;;;10402150;28;20199;-86
2023/12/01 12:51:35;;;;;;;23.53;13.93;;;3.20;99.90;;;;;;10393395;28;20303;-86
2023/12/01 12:56:56;;;;;;;17.47;10.27;;;2.80;99.90;;;;;;10407469;28;20252;-85
2023/12/01 13:02:18;;;;;;;38.07;16.90;;;2.80;99.90;;;;;;10394866;28;20425;-84
2023/12/01 13:07:39;;;;;;;39.30;18.13;;;2.70;99.90;;;;;;10381250;28;20214;-83
2023/12/01 13:13:01;;;;;;;81.60;33.97;;;2.60;99.90;;;;;;10401740;28;20242;-84
2023/12/01 13:18:22;;;;;;;52.10;23.23;;;2.40;1.00;;;;;;10407609;28;20207;-83
2023/12/01 13:23:43;;;;;;;57.40;22.57;;;2.30;1.00;;;;;;10407530;28;20200;-84
2023/12/01 13:29:04;;;;;;;66.77;25.10;;;2.20;1.00;;;;;;10394723;28;20201;-83
2023/12/01 13:34:27;;;;;;;53.17;22.70;;;2.10;1.00;;;;;;10417306;28;20468;-82
2023/12/01 13:39:48;;;;;;;35.00;18.20;;;2.10;1.00;;;;;;10433609;28;20188;-84
2023/12/01 13:45:10;;;;;;;45.30;22.43;;;2.10;1.00;;;;;;10430423;28;20239;-82
2023/12/01 13:50:32;;;;;;;37.10;17.57;;;2.20;1.00;;;;;;10407876;28;20260;-82
2023/12/01 13:55:53;;;;;;;34.33;16.97;;;2.30;1.00;;;;;;10393423;28;20223;-84
2023/12/01 14:01:18;;;;;;;39.20;19.53;;;2.20;1.00;;;;;;10378683;28;20295;-83
2023/12/01 14:06:39;;;;;;;53.73;28.40;;;2.10;1.00;;;;;;10420439;28;20201;-86
2023/12/01 14:12:00;;;;;;;45.23;21.07;;;2.00;1.00;;;;;;10390269;28;20245;-83
2023/12/01 14:17:21;;;;;;;51.77;21.00;;;1.90;1.00;;;;;;10392139;28;20258;-86
2023/12/01 14:22:43;;;;;;;31.80;15.33;;;1.80;1.00;;;;;;10391810;28;20208;-83
2023/12/01 14:28:04;;;;;;;36.33;17.27;;;1.70;10.70;;;;;;10366135;28;20253;-81
2023/12/01 14:33:25;;;;;;;32.43;17.73;;;1.60;99.90;;;;;;10394193;28;20243;-84
2023/12/01 14:38:47;;;;;;;36.17;18.13;;;1.50;99.90;;;;;;10356166;28;20255;-84
2023/12/01 14:44:08;;;;;;;33.57;17.43;;;1.40;99.90;;;;;;10375878;28;20201;-81
2023/12/01 14:49:29;;;;;;;29.33;15.17;;;1.30;1.00;;;;;;10403913;28;20236;-84
2023/12/01 14:54:50;;;;;;;35.20;18.90;;;1.30;99.90;;;;;;10409475;28;20233;-82
2023/12/01 15:00:13;;;;;;;35.70;16.90;;;1.30;1.00;;;;;;10412649;28;20203;-82
2023/12/01 15:05:34;;;;;;;27.07;13.97;;;1.20;1.00;;;;;;10410931;28;20201;-86
2023/12/01 15:10:56;;;;;;;27.67;15.13;;;1.20;1.00;;;;;;10404769;28;20206;-81
2023/12/01 15:16:18;;;;;;;37.07;19.13;;;1.20;1.00;;;;;;10400322;28;20221;-84
2023/12/01 15:21:39;;;;;;;41.50;18.23;;;1.20;1.00;;;;;;10417315;28;20279;-81
2023/12/01 15:27:00;;;;;;;39.23;20.87;;;1.10;1.00;;;;;;10430156;28;20200;-85
2023/12/01 15:32:21;;;;;;;40.47;22.67;;;1.00;1.00;;;;;;10402292;28;20404;-83
2023/12/01 15:37:43;;;;;;;50.47;27.27;;;0.90;73.90;;;;;;10450836;28;20295;-81
2023/12/01 15:43:04;;;;;;;57.27;31.97;;;0.90;99.90;;;;;;10429383;28;20201;-80
2023/12/01 15:48:25;;;;;;;68.47;36.43;;;0.90;1.00;;;;;;10392749;28;20201;-85
2023/12/01 15:53:46;;;;;;;38.30;21.70;;;0.90;99.90;;;;;;10411130;28;20241;-81
2023/12/01 15:59:07;;;;;;;26.10;13.73;;;0.90;99.90;;;;;;10421690;28;20189;-84
2023/12/01 16:04:29;;;;;;;21.33;12.30;;;0.90;1.00;;;;;;10410210;28;20200;-81
2023/12/01 16:09:51;;;;;;;16.93;10.13;;;1.00;1.00;;;;;;10409813;28;20208;-79
2023/12/01 16:15:12;;;;;;;20.57;11.57;;;1.10;1.00;;;;;;10417583;28;20279;-81
2023/12/01 16:20:35;;;;;;;17.27;10.93;;;1.00;1.00;;;;;;10400975;28;20224;-81
2023/12/01 16:25:56;;;;;;;26.07;15.43;;;1.10;99.90;;;;;;10415968;28;20222;-80
2023/12/01 16:31:17;;;;;;;43.73;23.27;;;1.00;1.00;;;;;;10399757;28;20209;-81
2023/12/01 16:36:39;;;;;;;22.50;11.90;;;1.00;1.00;;;;;;10402831;28;20276;-81
2023/12/01 16:42:01;;;;;;;14.63;10.60;;;0.90;99.90;;;;;;10385698;28;20205;-82
2023/12/01 16:47:22;;;;;;;25.43;15.90;;;1.00;1.00;;;;;;10408676;28;20232;-80
2023/12/01 16:52:43;;;;;;;42.73;22.13;;;1.00;99.90;;;;;;10399702;28;20274;-81
2023/12/01 16:58:06;;;;;;;37.37;19.73;;;1.00;1.00;;;;;;10414964;28;20448;-81
2023/12/01 17:03:29;;;;;;;34.17;16.07;;;0.90;1.00;;;;;;10422833;28;20201;-80
2023/12/01 17:08:51;;;;;;;40.47;18.23;;;0.80;1.00;;;;;;10439139;28;20196;-81
2023/12/01 17:14:13;;;;;;;30.83;15.10;;;0.80;99.90;;;;;;10436302;28;20338;-82
2023/12/01 17:19:33;;;;;;;21.97;10.93;;;0.80;1.00;;;;;;10397182;28;20518;-81
2023/12/01 17:24:55;;;;;;;19.90;11.20;;;0.80;1.00;;;;;;10383611;28;20221;-81
2023/12/01 17:30:16;;;;;;;30.73;15.10;;;0.90;14.50;;;;;;10411351;28;20185;-80
2023/12/01 17:35:38;;;;;;;31.10;15.10;;;0.90;99.90;;;;;;10395699;28;20263;-80
2023/12/01 17:40:59;;;;;;;24.57;13.40;;;0.80;99.90;;;;;;10410675;28;20380;-81
2023/12/01 17:46:22;;;;;;;20.47;11.73;;;0.80;99.90;;;;;;10410530;28;20280;-81
2023/12/01 17:51:43;;;;;;;18.73;11.37;;;0.80;1.00;;;;;;10424603;28;20422;-81
2023/12/01 17:57:05;;;;;;;18.47;11.33;;;0.70;1.00;;;;;;10426155;28;20281;-80
2023/12/01 18:02:27;;;;;;;18.13;10.73;;;0.70;99.90;;;;;;10428117;28;20282;-81
2023/12/01 18:07:48;;;;;;;25.33;12.73;;;0.70;1.00;;;;;;10409965;28;20196;-81
2023/12/01 18:13:09;;;;;;;22.53;13.47;;;0.70;1.00;;;;;;10425879;28;20299;-80
2023/12/01 18:18:32;;;;;;;22.53;11.40;;;0.60;1.00;;;;;;10423751;28;20188;-81
2023/12/01 18:23:54;;;;;;;15.03;9.40;;;0.70;99.90;;;;;;10428653;28;20210;-80
2023/12/01 18:29:15;;;;;;;13.67;9.30;;;0.80;1.00;;;;;;10390527;28;20523;-81
2023/12/01 18:34:37;;;;;;;17.07;9.93;;;0.80;1.00;;;;;;10409160;28;20230;-80
2023/12/01 18:39:58;;;;;;;17.40;9.77;;;0.70;99.90;;;;;;10396972;28;20197;-80
2023/12/01 18:45:19;;;;;;;18.93;10.90;;;0.70;99.90;;;;;;10413352;28;20196;-80
2023/12/01 18:50:41;;;;;;;14.93;9.63;;;0.70;1.00;;;;;;10428110;28;20770;-80
2023/12/01 18:56:02;;;;;;;27.03;13.93;;;0.80;99.90;;;;;;10398094;28;20240;-81
2023/12/01 19:01:23;;;;;;;24.77;12.97;;;0.80;1.00;;;;;;10414231;28;20200;-81
2023/12/01 19:06:45;;;;;;;26.23;13.53;;;0.80;26.70;;;;;;10401076;28;20559;-80
2023/12/01 19:12:06;;;;;;;42.83;20.93;;;0.90;99.90;;;;;;10434639;28;20236;-81
2023/12/01 19:17:27;;;;;;;57.50;28.43;;;0.80;1.00;;;;;;10435677;28;20223;-81
2023/12/01 19:22:49;;;;;;;53.03;26.20;;;0.80;99.90;;;;;;10432878;28;20209;-80
2023/12/01 19:28:10;;;;;;;63.97;34.10;;;0.90;1.00;;;;;;10402120;28;20207;-81
2023/12/01 19:33:31;;;;;;;48.67;26.60;;;0.90;1.00;;;;;;10387501;28;20240;-81
2023/12/01 19:38:52;;;;;;;39.83;21.40;;;0.90;99.90;;;;;;10402308;28;20260;-80
2023/12/01 19:44:14;;;;;;;39.17;18.87;;;0.90;2.80;;;;;;10431894;28;20209;-80
2023/12/01 19:49:35;;;;;;;24.67;14.73;;;1.00;1.00;;;;;;10403922;28;20302;-81
2023/12/01 19:54:56;;;;;;;18.17;11.00;;;1.00;99.90;;;;;;10415090;28;20220;-80
2023/12/01 20:00:17;;;;;;;24.80;13.10;;;1.00;1.00;;;;;;10403719;28;20197;-81
2023/12/01 20:05:39;;;;;;;17.57;10.33;;;1.00;1.00;;;;;;10384363;28;20199;-81
2023/12/01 20:11:00;;;;;;;18.13;10.53;;;1.10;1.00;;;;;;10433492;28;20207;-82
2023/12/01 20:16:21;;;;;;;18.53;11.47;;;1.00;1.00;;;;;;10428024;28;20204;-80
2023/12/01 20:21:42;;;;;;;17.70;10.33;;;1.10;1.00;;;;;;10427431;28;20195;-80
2023/12/01 20:27:04;;;;;;;15.20;9.57;;;1.10;1.00;;;;;;10402036;28;20223;-81
2023/12/01 20:32:26;;;;;;;17.23;11.20;;;1.10;99.90;;;;;;10416148;28;20511;-80
2023/12/01 20:37:48;;;;;;;34.80;18.07;;;1.10;99.90;;;;;;10412851;28;20287;-80
2023/12/01 20:43:10;;;;;;;38.93;21.23;;;1.00;99.90;;;;;;10412968;28;20385;-83
2023/12/01 20:48:33;;;;;;;42.40;20.70;;;0.90;1.00;;;;;;10398227;28;20193;-80
2023/12/01 20:53:54;;;;;;;37.97;19.60;;;0.90;99.90;;;;;;10385187;28;20224;-81
2023/12/01 20:59:15;;;;;;;37.53;20.53;;;0.90;1.00;;;;;;10398656;28;20280;-80
2023/12/01 21:04:36;;;;;;;38.63;21.33;;;1.00;1.00;;;;;;10383004;28;20210;-81
2023/12/01 21:09:58;;;;;;;26.30;15.83;;;1.10;1.00;;;;;;10387924;28;20201;-80
2023/12/01 21:15:19;;;;;;;21.13;12.03;;;1.10;1.00;;;;;;10412665;28;20299;-81
2023/12/01 21:20:40;;;;;;;20.40;12.03;;;1.10;99.90;;;;;;10425779;28;20268;-80
2023/12/01 21:26:02;;;;;;;20.23;13.10;;;1.20;1.00;;;;;;10397706;28;20207;-81
2023/12/01 21:31:24;;;;;;;24.90;13.27;;;1.20;99.90;;;;;;10412241;28;20596;-81
2023/12/01 21:36:46;;;;;;;33.30;16.50;;;1.20;13.00;;;;;;10410741;28;20215;-80
2023/12/01 21:42:07;;;;;;;28.00;15.60;;;1.20;87.70;;;;;;10430214;28;20205;-81
2023/12/01 21:47:28;;;;;;;21.07;12.90;;;1.20;99.90;;;;;;10397727;28;20376;-80
2023/12/01 21:52:49;;;;;;;20.50;11.57;;;1.20;99.90;;;;;;10409995;28;20643;-81
2023/12/01 21:58:11;;;;;;;19.30;11.60;;;1.20;1.00;;;;;;10399074;28;20201;-81
2023/12/01 22:03:32;;;;;;;19.90;10.73;;;1.30;1.00;;;;;;10374760;28;20225;-80
2023/12/01 22:08:53;;;;;;;19.70;12.87;;;1.30;99.90;;;;;;10409670;28;20232;-82
2023/12/01 22:14:15;;;;;;;30.63;16.93;;;1.30;1.00;;;;;;10428806;28;20316;-81
2023/12/01 22:19:36;;;;;;;38.83;19.30;;;1.20;1.00;;;;;;10395476;28;20554;-80
2023/12/01 22:24:57;;;;;;;37.03;19.53;;;1.30;85.60;;;;;;10397933;28;20236;-80
2023/12/01 22:30:20;;;;;;;36.20;19.67;;;1.20;1.00;;;;;;10411065;28;20510;-80
2023/12/01 22:35:41;;;;;;;27.90;15.53;;;1.20;99.90;;;;;;10405968;28;20635;-80
2023/12/01 22:41:03;;;;;;;23.70;14.20;;;1.20;17.80;;;;;;10394558;28;20202;-80
2023/12/01 22:46:24;;;;;;;30.60;17.20;;;1.30;99.90;;;;;;10428303;28;20188;-80
2023/12/01 22:51:45;;;;;;;29.57;17.30;;;1.20;99.90;;;;;;10414288;28;20484;-80
2023/12/01 22:57:08;;;;;;;28.27;16.43;;;1.20;57.40;;;;;;10413155;28;20193;-80
2023/12/01 23:02:29;;;;;;;22.97;14.97;;;1.20;1.00;;;;;;10412257;28;20197;-80
2023/12/01 23:07:51;;;;;;;31.07;17.60;;;1.10;1.00;;;;;;10421818;28;20197;-82
2023/12/01 23:13:12;;;;;;;36.50;18.37;;;1.20;99.90;;;;;;10455576;28;20233;-82
2023/12/01 23:18:33;;;;;;;30.00;15.50;;;1.10;1.00;;;;;;10419262;28;20203;-80
2023/12/01 23:23:54;;;;;;;26.67;15.23;;;1.20;1.00;;;;;;10424615;28;20461;-79
2023/12/01 23:29:15;;;;;;;24.93;14.57;;;1.20;1.00;;;;;;10407885;28;20220;-80
2023/12/01 23:34:36;;;;;;;24.83;14.60;;;1.30;99.90;;;;;;10394484;28;20228;-80
2023/12/01 23:39:58;;;;;;;24.57;13.23;;;1.30;1.00;;;;;;10394037;28;20200;-80
2023/12/01 23:45:19;;;;;;;20.53;11.23;;;1.20;1.00;;;;;;10407833;28;20194;-80
2023/12/01 23:50:40;;;;;;;20.23;10.33;;;1.10;1.00;;;;;;10379841;28;20229;-80
2023/12/01 23:56:02;;;;;;;14.57;8.13;;;1.10;99.90;;;;;;10399164;28;20266;-80
